sensor_id;sensor_type;location;lat;lon;timestamp;P1;durP1;ratioP1;P2;durP2;ratioP2
48935;SDS011;34745;52.276;10.528;2022-11-15T00:00:31;20.93;;;14.83;;
48935;SDS011;34745;52.276;10.528;2022-11-15T00:02:59;19.93;;;14.37;;
48935;SDS011;34745;52.276;10.528;2022-11-15T00:05:27;20.33;;;15.63;;
48935;SDS011;34745;52.276;10.528;2022-11-15T00:07:54;23.47;;;14.60;;
48935;SDS011;34745;52.276;10.528;2022-11-15T00:10:23;20.07;;;14.77;;
48935;SDS011;34745;52.276;10.528;2022-11-15T00:12:50;20.63;;;14.73;;
48935;SDS011;34745;52.276;10.528;2022-11-15T00:15:17;17.40;;;14.60;;
48935;SDS011;34745;52.276;10.528;2022-11-15T00:17:44;18.07;;;14.60;;
48935;SDS011;34745;52.276;10.528;2022-11-15T00:20:15;22.90;;;15.40;;
48935;SDS011;34745;52.276;10.528;2022-11-15T00:22:43;21.93;;;15.30;;
48935;SDS011;34745;52.276;10.528;2022-11-15T00:25:10;23.27;;;16.73;;
48935;SDS011;34745;52.276;10.528;2022-11-15T00:27:37;19.03;;;14.27;;
48935;SDS011;34745;52.276;10.528;2022-11-15T00:30:05;17.83;;;13.47;;
48935;SDS011;34745;52.276;10.528;2022-11-15T00:32:33;18.40;;;13.77;;
48935;SDS011;34745;52.276;10.528;2022-11-15T00:35:00;21.50;;;13.80;;
48935;SDS011;34745;52.276;10.528;2022-11-15T00:37:27;18.10;;;13.70;;
48935;SDS011;34745;52.276;10.528;2022-11-15T00:39:55;20.27;;;13.83;;
48935;SDS011;34745;52.276;10.528;2022-11-15T00:42:22;19.73;;;14.43;;
48935;SDS011;34745;52.276;10.528;2022-11-15T00:44:49;16.73;;;13.10;;
48935;SDS011;34745;52.276;10.528;2022-11-15T00:47:16;20.37;;;13.93;;
48935;SDS011;34745;52.276;10.528;2022-11-15T00:49:43;16.30;;;12.90;;
48935;SDS011;34745;52.276;10.528;2022-11-15T00:52:10;20.93;;;14.20;;
48935;SDS011;34745;52.276;10.528;2022-11-15T00:54:37;20.47;;;14.03;;
48935;SDS011;34745;52.276;10.528;2022-11-15T00:57:05;20.50;;;13.57;;
48935;SDS011;34745;52.276;10.528;2022-11-15T00:59:32;17.90;;;13.43;;
48935;SDS011;34745;52.276;10.528;2022-11-15T01:01:59;19.13;;;14.13;;
48935;SDS011;34745;52.276;10.528;2022-11-15T01:04:26;16.93;;;13.13;;
48935;SDS011;34745;52.276;10.528;2022-11-15T01:06:53;21.30;;;13.73;;
48935;SDS011;34745;52.276;10.528;2022-11-15T01:09:20;18.33;;;13.40;;
48935;SDS011;34745;52.276;10.528;2022-11-15T01:11:47;17.70;;;13.93;;
48935;SDS011;34745;52.276;10.528;2022-11-15T01:14:16;21.27;;;13.60;;
48935;SDS011;34745;52.276;10.528;2022-11-15T01:16:50;17.87;;;13.20;;
48935;SDS011;34745;52.276;10.528;2022-11-15T01:19:17;17.27;;;14.10;;
48935;SDS011;34745;52.276;10.528;2022-11-15T01:21:44;23.20;;;14.33;;
48935;SDS011;34745;52.276;10.528;2022-11-15T01:24:12;18.07;;;13.47;;
48935;SDS011;34745;52.276;10.528;2022-11-15T01:26:39;21.30;;;14.33;;
48935;SDS011;34745;52.276;10.528;2022-11-15T01:29:06;21.97;;;13.47;;
48935;SDS011;34745;52.276;10.528;2022-11-15T01:31:35;18.10;;;13.80;;
48935;SDS011;34745;52.276;10.528;2022-11-15T01:34:02;17.87;;;14.00;;
48935;SDS011;34745;52.276;10.528;2022-11-15T01:36:29;20.13;;;13.37;;
48935;SDS011;34745;52.276;10.528;2022-11-15T01:38:57;18.67;;;14.30;;
48935;SDS011;34745;52.276;10.528;2022-11-15T01:41:25;17.67;;;13.63;;
48935;SDS011;34745;52.276;10.528;2022-11-15T01:43:55;19.07;;;13.80;;
48935;SDS011;34745;52.276;10.528;2022-11-15T01:46:25;17.47;;;13.67;;
48935;SDS011;34745;52.276;10.528;2022-11-15T01:48:58;16.23;;;13.67;;
48935;SDS011;34745;52.276;10.528;2022-11-15T01:51:28;19.73;;;14.17;;
48935;SDS011;34745;52.276;10.528;2022-11-15T01:54:00;23.80;;;13.83;;
48935;SDS011;34745;52.276;10.528;2022-11-15T01:56:32;19.17;;;13.83;;
48935;SDS011;34745;52.276;10.528;2022-11-15T01:59:04;18.80;;;13.77;;
48935;SDS011;34745;52.276;10.528;2022-11-15T02:01:34;20.47;;;14.17;;
48935;SDS011;34745;52.276;10.528;2022-11-15T02:04:04;21.47;;;14.30;;
48935;SDS011;34745;52.276;10.528;2022-11-15T02:06:36;19.53;;;13.23;;
48935;SDS011;34745;52.276;10.528;2022-11-15T02:09:04;19.20;;;14.40;;
48935;SDS011;34745;52.276;10.528;2022-11-15T02:11:31;25.13;;;14.73;;
48935;SDS011;34745;52.276;10.528;2022-11-15T02:13:58;19.60;;;14.10;;
48935;SDS011;34745;52.276;10.528;2022-11-15T02:16:28;24.43;;;15.60;;
48935;SDS011;34745;52.276;10.528;2022-11-15T02:19:03;24.83;;;14.43;;
48935;SDS011;34745;52.276;10.528;2022-11-15T02:21:40;18.87;;;14.57;;
48935;SDS011;34745;52.276;10.528;2022-11-15T02:24:25;21.10;;;14.50;;
48935;SDS011;34745;52.276;10.528;2022-11-15T02:27:16;20.80;;;14.57;;
48935;SDS011;34745;52.276;10.528;2022-11-15T02:30:20;35.10;;;21.83;;
48935;SDS011;34745;52.276;10.528;2022-11-15T02:32:52;20.83;;;14.40;;
48935;SDS011;34745;52.276;10.528;2022-11-15T02:35:26;20.97;;;13.90;;
48935;SDS011;34745;52.276;10.528;2022-11-15T02:38:02;20.67;;;13.23;;
48935;SDS011;34745;52.276;10.528;2022-11-15T02:40:34;19.60;;;13.97;;
48935;SDS011;34745;52.276;10.528;2022-11-15T02:43:08;19.30;;;14.13;;
48935;SDS011;34745;52.276;10.528;2022-11-15T02:46:00;18.00;;;13.23;;
48935;SDS011;34745;52.276;10.528;2022-11-15T02:48:31;17.50;;;13.80;;
48935;SDS011;34745;52.276;10.528;2022-11-15T02:51:00;17.63;;;13.77;;
48935;SDS011;34745;52.276;10.528;2022-11-15T02:53:28;19.47;;;13.60;;
48935;SDS011;34745;52.276;10.528;2022-11-15T02:55:55;23.33;;;13.70;;
48935;SDS011;34745;52.276;10.528;2022-11-15T02:58:33;18.40;;;13.53;;
48935;SDS011;34745;52.276;10.528;2022-11-15T03:01:12;17.97;;;13.50;;
48935;SDS011;34745;52.276;10.528;2022-11-15T03:03:50;19.40;;;13.03;;
48935;SDS011;34745;52.276;10.528;2022-11-15T03:06:27;18.40;;;13.37;;
48935;SDS011;34745;52.276;10.528;2022-11-15T03:09:03;18.90;;;13.33;;
48935;SDS011;34745;52.276;10.528;2022-11-15T03:11:35;17.03;;;12.30;;
48935;SDS011;34745;52.276;10.528;2022-11-15T03:14:06;22.70;;;12.77;;
48935;SDS011;34745;52.276;10.528;2022-11-15T03:16:46;19.40;;;11.70;;
48935;SDS011;34745;52.276;10.528;2022-11-15T03:19:18;17.47;;;12.07;;
48935;SDS011;34745;52.276;10.528;2022-11-15T03:21:52;17.97;;;11.10;;
48935;SDS011;34745;52.276;10.528;2022-11-15T03:24:21;22.00;;;12.33;;
48935;SDS011;34745;52.276;10.528;2022-11-15T03:26:52;16.73;;;12.37;;
48935;SDS011;34745;52.276;10.528;2022-11-15T03:29:22;17.10;;;11.80;;
48935;SDS011;34745;52.276;10.528;2022-11-15T03:31:56;17.30;;;11.20;;
48935;SDS011;34745;52.276;10.528;2022-11-15T03:34:29;16.47;;;11.40;;
48935;SDS011;34745;52.276;10.528;2022-11-15T03:37:01;15.10;;;10.97;;
48935;SDS011;34745;52.276;10.528;2022-11-15T03:39:29;16.97;;;11.37;;
48935;SDS011;34745;52.276;10.528;2022-11-15T03:41:57;15.30;;;10.57;;
48935;SDS011;34745;52.276;10.528;2022-11-15T03:44:35;18.33;;;11.20;;
48935;SDS011;34745;52.276;10.528;2022-11-15T03:47:09;16.17;;;10.93;;
48935;SDS011;34745;52.276;10.528;2022-11-15T03:49:43;15.00;;;11.13;;
48935;SDS011;34745;52.276;10.528;2022-11-15T03:52:13;14.60;;;10.03;;
48935;SDS011;34745;52.276;10.528;2022-11-15T03:54:49;15.00;;;11.40;;
48935;SDS011;34745;52.276;10.528;2022-11-15T03:57:16;17.40;;;11.13;;
48935;SDS011;34745;52.276;10.528;2022-11-15T03:59:44;17.47;;;10.63;;
48935;SDS011;34745;52.276;10.528;2022-11-15T04:02:12;14.97;;;10.10;;
48935;SDS011;34745;52.276;10.528;2022-11-15T04:04:40;13.63;;;10.23;;
48935;SDS011;34745;52.276;10.528;2022-11-15T04:07:07;14.30;;;9.60;;
48935;SDS011;34745;52.276;10.528;2022-11-15T04:09:34;14.40;;;9.70;;
48935;SDS011;34745;52.276;10.528;2022-11-15T04:12:21;16.70;;;10.57;;
48935;SDS011;34745;52.276;10.528;2022-11-15T04:14:58;13.30;;;10.03;;
48935;SDS011;34745;52.276;10.528;2022-11-15T04:17:37;17.00;;;10.83;;
48935;SDS011;34745;52.276;10.528;2022-11-15T04:20:07;15.03;;;10.93;;
48935;SDS011;34745;52.276;10.528;2022-11-15T04:22:56;17.93;;;11.30;;
48935;SDS011;34745;52.276;10.528;2022-11-15T04:25:42;16.67;;;10.47;;
48935;SDS011;34745;52.276;10.528;2022-11-15T04:28:11;17.03;;;11.33;;
48935;SDS011;34745;52.276;10.528;2022-11-15T04:30:38;13.43;;;11.20;;
48935;SDS011;34745;52.276;10.528;2022-11-15T04:33:06;15.77;;;11.37;;
48935;SDS011;34745;52.276;10.528;2022-11-15T04:35:33;19.17;;;11.83;;
48935;SDS011;34745;52.276;10.528;2022-11-15T04:38:01;17.20;;;11.93;;
48935;SDS011;34745;52.276;10.528;2022-11-15T04:40:29;16.73;;;11.50;;
48935;SDS011;34745;52.276;10.528;2022-11-15T04:42:56;17.77;;;11.77;;
48935;SDS011;34745;52.276;10.528;2022-11-15T04:45:29;18.37;;;12.13;;
48935;SDS011;34745;52.276;10.528;2022-11-15T04:47:56;17.37;;;11.20;;
48935;SDS011;34745;52.276;10.528;2022-11-15T04:50:24;18.20;;;12.03;;
48935;SDS011;34745;52.276;10.528;2022-11-15T04:52:54;17.00;;;12.10;;
48935;SDS011;34745;52.276;10.528;2022-11-15T04:55:25;17.93;;;11.47;;
48935;SDS011;34745;52.276;10.528;2022-11-15T04:57:59;18.70;;;11.97;;
48935;SDS011;34745;52.276;10.528;2022-11-15T05:00:27;15.97;;;12.40;;
48935;SDS011;34745;52.276;10.528;2022-11-15T05:02:55;19.63;;;12.00;;
48935;SDS011;34745;52.276;10.528;2022-11-15T05:05:43;16.90;;;11.70;;
48935;SDS011;34745;52.276;10.528;2022-11-15T05:08:10;18.40;;;12.40;;
48935;SDS011;34745;52.276;10.528;2022-11-15T05:10:37;15.27;;;12.10;;
48935;SDS011;34745;52.276;10.528;2022-11-15T05:13:04;18.27;;;12.43;;
48935;SDS011;34745;52.276;10.528;2022-11-15T05:15:31;21.50;;;12.27;;
48935;SDS011;34745;52.276;10.528;2022-11-15T05:17:58;16.10;;;11.23;;
48935;SDS011;34745;52.276;10.528;2022-11-15T05:20:26;17.73;;;12.07;;
48935;SDS011;34745;52.276;10.528;2022-11-15T05:22:55;14.30;;;12.10;;
48935;SDS011;34745;52.276;10.528;2022-11-15T05:25:22;18.30;;;12.23;;
48935;SDS011;34745;52.276;10.528;2022-11-15T05:27:49;17.23;;;12.03;;
48935;SDS011;34745;52.276;10.528;2022-11-15T05:30:16;18.63;;;12.33;;
48935;SDS011;34745;52.276;10.528;2022-11-15T05:32:43;19.63;;;11.97;;
48935;SDS011;34745;52.276;10.528;2022-11-15T05:35:12;15.10;;;11.43;;
48935;SDS011;34745;52.276;10.528;2022-11-15T05:37:44;21.37;;;12.03;;
48935;SDS011;34745;52.276;10.528;2022-11-15T05:40:12;19.10;;;11.67;;
48935;SDS011;34745;52.276;10.528;2022-11-15T05:42:39;15.67;;;12.33;;
48935;SDS011;34745;52.276;10.528;2022-11-15T05:45:07;15.57;;;12.33;;
48935;SDS011;34745;52.276;10.528;2022-11-15T05:47:35;17.03;;;12.70;;
48935;SDS011;34745;52.276;10.528;2022-11-15T05:50:04;19.17;;;12.43;;
48935;SDS011;34745;52.276;10.528;2022-11-15T05:52:33;17.30;;;12.57;;
48935;SDS011;34745;52.276;10.528;2022-11-15T05:55:03;22.33;;;12.20;;
48935;SDS011;34745;52.276;10.528;2022-11-15T05:57:34;22.20;;;12.83;;
48935;SDS011;34745;52.276;10.528;2022-11-15T06:00:02;18.13;;;11.87;;
48935;SDS011;34745;52.276;10.528;2022-11-15T06:02:30;18.13;;;13.17;;
48935;SDS011;34745;52.276;10.528;2022-11-15T06:04:57;17.87;;;12.70;;
48935;SDS011;34745;52.276;10.528;2022-11-15T06:07:24;17.03;;;11.87;;
48935;SDS011;34745;52.276;10.528;2022-11-15T06:09:51;18.97;;;12.67;;
48935;SDS011;34745;52.276;10.528;2022-11-15T06:12:18;21.23;;;12.07;;
48935;SDS011;34745;52.276;10.528;2022-11-15T06:14:47;19.33;;;12.87;;
48935;SDS011;34745;52.276;10.528;2022-11-15T06:17:14;19.10;;;12.63;;
48935;SDS011;34745;52.276;10.528;2022-11-15T06:19:41;20.93;;;13.10;;
48935;SDS011;34745;52.276;10.528;2022-11-15T06:22:08;21.37;;;13.33;;
48935;SDS011;34745;52.276;10.528;2022-11-15T06:24:36;16.40;;;12.53;;
48935;SDS011;34745;52.276;10.528;2022-11-15T06:27:02;19.03;;;12.43;;
48935;SDS011;34745;52.276;10.528;2022-11-15T06:29:30;18.30;;;13.17;;
48935;SDS011;34745;52.276;10.528;2022-11-15T06:31:58;17.13;;;11.90;;
48935;SDS011;34745;52.276;10.528;2022-11-15T06:34:25;18.20;;;12.20;;
48935;SDS011;34745;52.276;10.528;2022-11-15T06:36:52;18.03;;;12.20;;
48935;SDS011;34745;52.276;10.528;2022-11-15T06:39:20;15.57;;;12.07;;
48935;SDS011;34745;52.276;10.528;2022-11-15T06:41:46;23.00;;;12.83;;
48935;SDS011;34745;52.276;10.528;2022-11-15T06:44:14;19.10;;;12.30;;
48935;SDS011;34745;52.276;10.528;2022-11-15T06:46:41;20.80;;;11.90;;
48935;SDS011;34745;52.276;10.528;2022-11-15T06:49:09;17.53;;;12.33;;
48935;SDS011;34745;52.276;10.528;2022-11-15T06:51:36;15.73;;;12.27;;
48935;SDS011;34745;52.276;10.528;2022-11-15T06:54:03;20.03;;;12.37;;
48935;SDS011;34745;52.276;10.528;2022-11-15T06:56:30;17.33;;;12.57;;
48935;SDS011;34745;52.276;10.528;2022-11-15T06:58:58;21.77;;;12.80;;
48935;SDS011;34745;52.276;10.528;2022-11-15T07:01:24;19.50;;;14.10;;
48935;SDS011;34745;52.276;10.528;2022-11-15T07:03:52;21.03;;;13.20;;
48935;SDS011;34745;52.276;10.528;2022-11-15T07:06:20;19.93;;;12.83;;
48935;SDS011;34745;52.276;10.528;2022-11-15T07:08:47;26.97;;;12.63;;
48935;SDS011;34745;52.276;10.528;2022-11-15T07:11:14;18.20;;;12.53;;
48935;SDS011;34745;52.276;10.528;2022-11-15T07:13:41;22.60;;;12.27;;
48935;SDS011;34745;52.276;10.528;2022-11-15T07:16:09;20.83;;;12.67;;
48935;SDS011;34745;52.276;10.528;2022-11-15T07:18:37;18.33;;;12.53;;
48935;SDS011;34745;52.276;10.528;2022-11-15T07:21:05;17.87;;;12.37;;
48935;SDS011;34745;52.276;10.528;2022-11-15T07:23:36;17.97;;;12.83;;
48935;SDS011;34745;52.276;10.528;2022-11-15T07:26:04;17.00;;;12.00;;
48935;SDS011;34745;52.276;10.528;2022-11-15T07:28:32;20.97;;;11.87;;
48935;SDS011;34745;52.276;10.528;2022-11-15T07:31:01;22.27;;;12.63;;
48935;SDS011;34745;52.276;10.528;2022-11-15T07:33:29;20.37;;;12.70;;
48935;SDS011;34745;52.276;10.528;2022-11-15T07:35:58;23.17;;;11.83;;
48935;SDS011;34745;52.276;10.528;2022-11-15T07:38:25;19.30;;;11.90;;
48935;SDS011;34745;52.276;10.528;2022-11-15T07:40:56;15.87;;;11.17;;
48935;SDS011;34745;52.276;10.528;2022-11-15T07:43:24;19.63;;;10.87;;
48935;SDS011;34745;52.276;10.528;2022-11-15T07:45:51;17.33;;;10.37;;
48935;SDS011;34745;52.276;10.528;2022-11-15T07:48:24;18.40;;;11.20;;
48935;SDS011;34745;52.276;10.528;2022-11-15T07:50:57;15.07;;;10.60;;
48935;SDS011;34745;52.276;10.528;2022-11-15T07:53:24;14.30;;;10.10;;
48935;SDS011;34745;52.276;10.528;2022-11-15T07:55:51;18.07;;;10.33;;
48935;SDS011;34745;52.276;10.528;2022-11-15T07:58:21;12.97;;;9.60;;
48935;SDS011;34745;52.276;10.528;2022-11-15T08:00:48;15.67;;;9.83;;
48935;SDS011;34745;52.276;10.528;2022-11-15T08:03:15;16.33;;;9.83;;
48935;SDS011;34745;52.276;10.528;2022-11-15T08:05:43;14.20;;;9.87;;
48935;SDS011;34745;52.276;10.528;2022-11-15T08:08:16;13.37;;;9.27;;
48935;SDS011;34745;52.276;10.528;2022-11-15T08:10:43;13.77;;;9.50;;
48935;SDS011;34745;52.276;10.528;2022-11-15T08:13:11;13.63;;;9.53;;
48935;SDS011;34745;52.276;10.528;2022-11-15T08:15:40;13.73;;;9.67;;
48935;SDS011;34745;52.276;10.528;2022-11-15T08:18:08;14.30;;;9.23;;
48935;SDS011;34745;52.276;10.528;2022-11-15T08:20:38;12.73;;;9.00;;
48935;SDS011;34745;52.276;10.528;2022-11-15T08:23:06;18.13;;;9.97;;
48935;SDS011;34745;52.276;10.528;2022-11-15T08:25:34;16.03;;;8.77;;
48935;SDS011;34745;52.276;10.528;2022-11-15T08:28:03;12.20;;;8.47;;
48935;SDS011;34745;52.276;10.528;2022-11-15T08:30:33;13.63;;;9.23;;
48935;SDS011;34745;52.276;10.528;2022-11-15T08:33:03;10.83;;;8.30;;
48935;SDS011;34745;52.276;10.528;2022-11-15T08:35:31;13.53;;;8.43;;
48935;SDS011;34745;52.276;10.528;2022-11-15T08:37:58;13.77;;;7.90;;
48935;SDS011;34745;52.276;10.528;2022-11-15T08:40:25;20.50;;;8.43;;
48935;SDS011;34745;52.276;10.528;2022-11-15T08:42:53;13.87;;;8.00;;
48935;SDS011;34745;52.276;10.528;2022-11-15T08:45:20;16.77;;;7.77;;
48935;SDS011;34745;52.276;10.528;2022-11-15T08:47:47;12.70;;;8.53;;
48935;SDS011;34745;52.276;10.528;2022-11-15T08:50:21;11.57;;;8.30;;
48935;SDS011;34745;52.276;10.528;2022-11-15T08:52:48;9.67;;;8.30;;
48935;SDS011;34745;52.276;10.528;2022-11-15T08:55:15;11.20;;;8.27;;
48935;SDS011;34745;52.276;10.528;2022-11-15T08:57:43;20.47;;;10.23;;
48935;SDS011;34745;52.276;10.528;2022-11-15T09:00:11;25.47;;;15.37;;
48935;SDS011;34745;52.276;10.528;2022-11-15T09:02:39;21.43;;;12.47;;
48935;SDS011;34745;52.276;10.528;2022-11-15T09:05:07;19.77;;;10.60;;
48935;SDS011;34745;52.276;10.528;2022-11-15T09:07:35;16.37;;;8.97;;
48935;SDS011;34745;52.276;10.528;2022-11-15T09:10:03;14.27;;;8.50;;
48935;SDS011;34745;52.276;10.528;2022-11-15T09:12:30;12.97;;;8.80;;
48935;SDS011;34745;52.276;10.528;2022-11-15T09:14:58;12.30;;;8.37;;
48935;SDS011;34745;52.276;10.528;2022-11-15T09:17:24;15.93;;;8.50;;
48935;SDS011;34745;52.276;10.528;2022-11-15T09:19:52;15.07;;;8.87;;
48935;SDS011;34745;52.276;10.528;2022-11-15T09:22:19;12.17;;;8.97;;
48935;SDS011;34745;52.276;10.528;2022-11-15T09:24:47;10.70;;;7.70;;
48935;SDS011;34745;52.276;10.528;2022-11-15T09:27:14;11.40;;;8.40;;
48935;SDS011;34745;52.276;10.528;2022-11-15T09:29:41;14.33;;;8.50;;
48935;SDS011;34745;52.276;10.528;2022-11-15T09:32:08;13.87;;;8.43;;
48935;SDS011;34745;52.276;10.528;2022-11-15T09:34:35;15.40;;;8.50;;
48935;SDS011;34745;52.276;10.528;2022-11-15T09:37:02;12.07;;;8.63;;
48935;SDS011;34745;52.276;10.528;2022-11-15T09:39:29;9.40;;;7.80;;
48935;SDS011;34745;52.276;10.528;2022-11-15T09:42:12;11.20;;;8.30;;
48935;SDS011;34745;52.276;10.528;2022-11-15T09:44:55;12.17;;;7.73;;
48935;SDS011;34745;52.276;10.528;2022-11-15T09:47:38;10.70;;;7.80;;
48935;SDS011;34745;52.276;10.528;2022-11-15T09:50:17;12.73;;;8.20;;
48935;SDS011;34745;52.276;10.528;2022-11-15T09:52:55;15.87;;;8.20;;
48935;SDS011;34745;52.276;10.528;2022-11-15T09:55:24;10.57;;;7.73;;
48935;SDS011;34745;52.276;10.528;2022-11-15T09:58:05;10.47;;;7.20;;
48935;SDS011;34745;52.276;10.528;2022-11-15T10:00:42;15.33;;;7.83;;
48935;SDS011;34745;52.276;10.528;2022-11-15T10:03:18;11.57;;;7.87;;
48935;SDS011;34745;52.276;10.528;2022-11-15T10:05:51;17.27;;;8.27;;
48935;SDS011;34745;52.276;10.528;2022-11-15T10:08:25;13.20;;;10.17;;
48935;SDS011;34745;52.276;10.528;2022-11-15T10:11:23;12.80;;;9.00;;
48935;SDS011;34745;52.276;10.528;2022-11-15T10:14:11;13.23;;;9.23;;
48935;SDS011;34745;52.276;10.528;2022-11-15T10:19:52;16.20;;;10.03;;
48935;SDS011;34745;52.276;10.528;2022-11-15T10:22:33;19.33;;;11.50;;
48935;SDS011;34745;52.276;10.528;2022-11-15T10:25:18;11.93;;;8.90;;
48935;SDS011;34745;52.276;10.528;2022-11-15T10:27:50;9.57;;;7.40;;
48935;SDS011;34745;52.276;10.528;2022-11-15T10:30:22;16.27;;;7.13;;
48935;SDS011;34745;52.276;10.528;2022-11-15T10:32:50;10.43;;;6.40;;
48935;SDS011;34745;52.276;10.528;2022-11-15T10:35:22;7.97;;;6.27;;
48935;SDS011;34745;52.276;10.528;2022-11-15T10:37:51;7.40;;;6.50;;
48935;SDS011;34745;52.276;10.528;2022-11-15T10:40:22;8.53;;;6.07;;
48935;SDS011;34745;52.276;10.528;2022-11-15T10:43:03;10.00;;;5.60;;
48935;SDS011;34745;52.276;10.528;2022-11-15T10:45:33;7.37;;;5.30;;
48935;SDS011;34745;52.276;10.528;2022-11-15T10:48:20;7.90;;;5.50;;
48935;SDS011;34745;52.276;10.528;2022-11-15T10:50:50;11.20;;;5.50;;
48935;SDS011;34745;52.276;10.528;2022-11-15T10:53:22;6.87;;;5.17;;
48935;SDS011;34745;52.276;10.528;2022-11-15T10:55:58;7.67;;;5.00;;
48935;SDS011;34745;52.276;10.528;2022-11-15T10:58:30;9.93;;;5.30;;
48935;SDS011;34745;52.276;10.528;2022-11-15T11:01:11;8.43;;;5.30;;
48935;SDS011;34745;52.276;10.528;2022-11-15T11:03:41;6.87;;;5.53;;
48935;SDS011;34745;52.276;10.528;2022-11-15T11:06:10;8.17;;;5.27;;
48935;SDS011;34745;52.276;10.528;2022-11-15T11:08:39;6.00;;;4.67;;
48935;SDS011;34745;52.276;10.528;2022-11-15T11:11:07;7.73;;;4.60;;
48935;SDS011;34745;52.276;10.528;2022-11-15T11:13:35;6.87;;;4.30;;
48935;SDS011;34745;52.276;10.528;2022-11-15T11:19:15;7.90;;;4.90;;
48935;SDS011;34745;52.276;10.528;2022-11-15T11:21:59;7.57;;;4.60;;
48935;SDS011;34745;52.276;10.528;2022-11-15T11:24:32;6.53;;;4.13;;
48935;SDS011;34745;52.276;10.528;2022-11-15T11:27:08;9.43;;;4.73;;
48935;SDS011;34745;52.276;10.528;2022-11-15T11:29:49;4.80;;;4.30;;
48935;SDS011;34745;52.276;10.528;2022-11-15T11:35:34;5.63;;;4.20;;
48935;SDS011;34745;52.276;10.528;2022-11-15T11:38:19;8.10;;;4.40;;
48935;SDS011;34745;52.276;10.528;2022-11-15T11:41:04;5.20;;;4.53;;
48935;SDS011;34745;52.276;10.528;2022-11-15T11:43:41;14.73;;;8.50;;
48935;SDS011;34745;52.276;10.528;2022-11-15T11:49:24;8.30;;;5.23;;
48935;SDS011;34745;52.276;10.528;2022-11-15T11:51:56;6.57;;;4.60;;
48935;SDS011;34745;52.276;10.528;2022-11-15T11:54:31;8.40;;;4.60;;
48935;SDS011;34745;52.276;10.528;2022-11-15T11:57:04;7.57;;;5.10;;
48935;SDS011;34745;52.276;10.528;2022-11-15T11:59:37;9.03;;;6.13;;
48935;SDS011;34745;52.276;10.528;2022-11-15T12:02:12;6.80;;;4.80;;
48935;SDS011;34745;52.276;10.528;2022-11-15T12:04:46;9.00;;;4.90;;
48935;SDS011;34745;52.276;10.528;2022-11-15T12:07:20;6.97;;;5.20;;
48935;SDS011;34745;52.276;10.528;2022-11-15T12:09:51;10.23;;;5.20;;
48935;SDS011;34745;52.276;10.528;2022-11-15T12:12:25;6.07;;;4.93;;
48935;SDS011;34745;52.276;10.528;2022-11-15T12:15:00;6.13;;;4.63;;
48935;SDS011;34745;52.276;10.528;2022-11-15T12:17:30;5.70;;;4.77;;
48935;SDS011;34745;52.276;10.528;2022-11-15T12:19:59;6.70;;;5.23;;
48935;SDS011;34745;52.276;10.528;2022-11-15T12:22:33;6.93;;;4.80;;
48935;SDS011;34745;52.276;10.528;2022-11-15T12:25:06;8.90;;;4.87;;
48935;SDS011;34745;52.276;10.528;2022-11-15T12:27:41;7.17;;;5.50;;
48935;SDS011;34745;52.276;10.528;2022-11-15T12:30:12;7.60;;;5.23;;
48935;SDS011;34745;52.276;10.528;2022-11-15T12:32:48;7.60;;;5.10;;
48935;SDS011;34745;52.276;10.528;2022-11-15T12:35:28;8.30;;;5.93;;
48935;SDS011;34745;52.276;10.528;2022-11-15T12:38:00;16.03;;;5.40;;
48935;SDS011;34745;52.276;10.528;2022-11-15T12:40:28;11.37;;;7.73;;
48935;SDS011;34745;52.276;10.528;2022-11-15T12:43:02;16.67;;;7.20;;
48935;SDS011;34745;52.276;10.528;2022-11-15T12:45:57;11.80;;;5.57;;
48935;SDS011;34745;52.276;10.528;2022-11-15T12:57:38;7.67;;;5.20;;
48935;SDS011;34745;52.276;10.528;2022-11-15T13:03:21;6.10;;;5.10;;
48935;SDS011;34745;52.276;10.528;2022-11-15T13:05:56;8.67;;;4.87;;
48935;SDS011;34745;52.276;10.528;2022-11-15T13:08:48;7.77;;;5.50;;
48935;SDS011;34745;52.276;10.528;2022-11-15T13:17:16;8.90;;;4.73;;
48935;SDS011;34745;52.276;10.528;2022-11-15T13:19:52;13.10;;;5.37;;
48935;SDS011;34745;52.276;10.528;2022-11-15T13:22:24;7.37;;;5.37;;
48935;SDS011;34745;52.276;10.528;2022-11-15T13:25:14;8.63;;;5.67;;
48935;SDS011;34745;52.276;10.528;2022-11-15T13:27:47;11.67;;;5.33;;
48935;SDS011;34745;52.276;10.528;2022-11-15T13:30:16;8.83;;;5.70;;
48935;SDS011;34745;52.276;10.528;2022-11-15T13:32:46;10.03;;;5.60;;
48935;SDS011;34745;52.276;10.528;2022-11-15T13:35:18;7.67;;;5.20;;
48935;SDS011;34745;52.276;10.528;2022-11-15T13:37:47;7.00;;;5.13;;
48935;SDS011;34745;52.276;10.528;2022-11-15T13:40:25;9.70;;;5.60;;
48935;SDS011;34745;52.276;10.528;2022-11-15T13:43:02;17.10;;;8.73;;
48935;SDS011;34745;52.276;10.528;2022-11-15T13:46:03;12.97;;;7.30;;
48935;SDS011;34745;52.276;10.528;2022-11-15T13:48:38;10.20;;;5.97;;
48935;SDS011;34745;52.276;10.528;2022-11-15T13:51:06;8.57;;;5.27;;
48935;SDS011;34745;52.276;10.528;2022-11-15T13:53:41;10.53;;;5.40;;
48935;SDS011;34745;52.276;10.528;2022-11-15T13:56:13;9.63;;;5.70;;
48935;SDS011;34745;52.276;10.528;2022-11-15T13:58:42;11.83;;;5.63;;
48935;SDS011;34745;52.276;10.528;2022-11-15T14:01:13;15.30;;;6.40;;
48935;SDS011;34745;52.276;10.528;2022-11-15T14:03:46;7.80;;;5.73;;
48935;SDS011;34745;52.276;10.528;2022-11-15T14:06:20;6.83;;;5.13;;
48935;SDS011;34745;52.276;10.528;2022-11-15T14:09:00;9.00;;;5.47;;
48935;SDS011;34745;52.276;10.528;2022-11-15T14:11:52;10.97;;;6.20;;
48935;SDS011;34745;52.276;10.528;2022-11-15T14:14:22;10.07;;;5.40;;
48935;SDS011;34745;52.276;10.528;2022-11-15T14:16:50;6.60;;;5.40;;
48935;SDS011;34745;52.276;10.528;2022-11-15T14:19:33;9.30;;;5.30;;
48935;SDS011;34745;52.276;10.528;2022-11-15T14:25:05;8.33;;;5.40;;
48935;SDS011;34745;52.276;10.528;2022-11-15T14:27:40;8.13;;;5.40;;
48935;SDS011;34745;52.276;10.528;2022-11-15T14:30:13;9.23;;;5.83;;
48935;SDS011;34745;52.276;10.528;2022-11-15T14:32:43;12.53;;;6.03;;
48935;SDS011;34745;52.276;10.528;2022-11-15T14:35:13;15.77;;;8.63;;
48935;SDS011;34745;52.276;10.528;2022-11-15T14:37:41;12.30;;;7.43;;
48935;SDS011;34745;52.276;10.528;2022-11-15T14:40:11;11.93;;;6.87;;
48935;SDS011;34745;52.276;10.528;2022-11-15T14:42:39;8.63;;;5.90;;
48935;SDS011;34745;52.276;10.528;2022-11-15T14:45:09;12.47;;;5.40;;
48935;SDS011;34745;52.276;10.528;2022-11-15T14:47:40;10.87;;;6.03;;
48935;SDS011;34745;52.276;10.528;2022-11-15T14:50:10;10.50;;;6.50;;
48935;SDS011;34745;52.276;10.528;2022-11-15T14:52:38;7.83;;;5.43;;
48935;SDS011;34745;52.276;10.528;2022-11-15T14:55:11;11.87;;;6.43;;
48935;SDS011;34745;52.276;10.528;2022-11-15T14:57:41;9.77;;;5.60;;
48935;SDS011;34745;52.276;10.528;2022-11-15T15:00:09;7.77;;;5.80;;
48935;SDS011;34745;52.276;10.528;2022-11-15T15:02:37;10.90;;;5.60;;
48935;SDS011;34745;52.276;10.528;2022-11-15T15:05:11;11.43;;;6.50;;
48935;SDS011;34745;52.276;10.528;2022-11-15T15:07:41;15.03;;;7.50;;
48935;SDS011;34745;52.276;10.528;2022-11-15T15:10:08;12.07;;;6.57;;
48935;SDS011;34745;52.276;10.528;2022-11-15T15:12:56;13.33;;;6.83;;